createdAt,value
2017-04-09T00:00:59.227Z,5.04
2017-04-09T00:02:00.471Z,5.02
2017-04-09T00:03:01.731Z,4.96
2017-04-09T00:04:02.940Z,4.95
2017-04-09T00:05:04.179Z,4.92
2017-04-09T00:06:05.479Z,4.86
2017-04-09T00:07:06.701Z,4.86
2017-04-09T00:08:07.939Z,4.88
2017-04-09T00:09:09.279Z,4.84
2017-04-09T00:10:10.539Z,4.8
2017-04-09T00:11:11.802Z,4.83
2017-04-09T00:12:13.043Z,4.76
2017-04-09T00:13:14.291Z,4.79
2017-04-09T00:14:15.565Z,4.73
2017-04-09T00:15:16.788Z,4.72
2017-04-09T00:16:18.027Z,4.79
2017-04-09T00:17:19.261Z,4.7
2017-04-09T00:18:20.512Z,4.62
2017-04-09T00:19:21.805Z,4.72
2017-04-09T00:20:23.097Z,4.65
2017-04-09T00:21:24.362Z,4.62
2017-04-09T00:22:25.605Z,4.57
2017-04-09T00:23:26.856Z,4.64
2017-04-09T00:24:28.085Z,4.61
2017-04-09T00:25:29.324Z,4.54
2017-04-09T00:26:30.585Z,4.59
2017-04-09T00:27:31.822Z,4.55
2017-04-09T00:28:33.118Z,4.59
2017-04-09T00:29:34.343Z,4.61
2017-04-09T00:30:35.588Z,4.55
2017-04-09T00:31:36.823Z,4.58
2017-04-09T00:32:38.069Z,4.58
2017-04-09T00:33:39.287Z,4.55
2017-04-09T00:34:40.535Z,4.54
2017-04-09T00:35:41.764Z,4.42
2017-04-09T00:36:42.997Z,4.42
2017-04-09T00:37:44.237Z,4.43
2017-04-09T00:38:45.630Z,4.47
2017-04-09T00:39:46.852Z,4.46
2017-04-09T00:40:48.084Z,4.39
2017-04-09T00:41:49.336Z,4.43
2017-04-09T00:42:50.581Z,4.4
2017-04-09T00:43:51.831Z,4.32
2017-04-09T00:44:53.058Z,4.32
2017-04-09T00:45:54.296Z,4.28
2017-04-09T00:46:55.676Z,4.25
2017-04-09T00:47:56.875Z,4.32
2017-04-09T00:48:58.117Z,4.28
2017-04-09T00:49:59.351Z,4.24
2017-04-09T00:51:00.595Z,4.25
2017-04-09T00:52:01.917Z,4.28
2017-04-09T00:53:03.155Z,4.25
2017-04-09T00:54:04.407Z,4.18
2017-04-09T00:55:05.623Z,4.28
2017-04-09T00:56:06.862Z,4.25
2017-04-09T00:57:08.094Z,4.18
2017-04-09T00:58:09.375Z,4.16
2017-04-09T00:59:10.664Z,4.18
2017-04-09T01:00:11.989Z,4.07
2017-04-09T01:01:13.226Z,4.08
2017-04-09T01:02:14.461Z,4.15
2017-04-09T01:03:15.710Z,4.15
2017-04-09T01:04:16.942Z,4.14
2017-04-09T01:05:18.184Z,4.18
2017-04-09T01:06:19.430Z,4.18
2017-04-09T01:07:20.664Z,4.14
2017-04-09T01:08:21.901Z,4.12
2017-04-09T01:09:23.141Z,4.08
2017-04-09T01:10:24.442Z,4.08
2017-04-09T01:11:25.680Z,4.07
2017-04-09T01:12:26.945Z,4.08
2017-04-09T01:13:28.255Z,4.1
2017-04-09T01:14:29.495Z,4.01
2017-04-09T01:15:30.733Z,4
2017-04-09T01:16:32.016Z,4.06
2017-04-09T01:17:33.250Z,4.01
2017-04-09T01:18:34.518Z,3.98
2017-04-09T01:19:35.801Z,3.96
2017-04-09T01:20:37.078Z,3.97
2017-04-09T01:21:38.311Z,3.97
2017-04-09T01:22:39.536Z,4
2017-04-09T01:23:40.777Z,3.89
2017-04-09T01:24:42.014Z,3.92
2017-04-09T01:25:43.245Z,3.92
2017-04-09T01:26:44.482Z,3.88
2017-04-09T01:27:45.733Z,3.96
2017-04-09T01:28:46.952Z,3.92
2017-04-09T01:29:48.190Z,3.83
2017-04-09T01:30:49.746Z,3.78
2017-04-09T01:31:50.979Z,3.79
2017-04-09T01:32:52.220Z,3.89
2017-04-09T01:33:53.470Z,3.85
2017-04-09T01:34:54.688Z,3.76
2017-04-09T01:35:55.935Z,3.86
2017-04-09T01:36:57.184Z,3.85
2017-04-09T01:37:58.431Z,3.8
2017-04-09T01:38:59.706Z,3.78
2017-04-09T01:40:00.938Z,3.86
2017-04-09T01:41:02.232Z,3.8
2017-04-09T01:42:03.494Z,3.72
2017-04-09T01:43:04.708Z,3.76
2017-04-09T01:44:05.947Z,3.7
2017-04-09T01:45:07.244Z,3.7
2017-04-09T01:46:08.471Z,3.75
2017-04-09T01:47:09.700Z,3.72
2017-04-09T01:48:10.929Z,3.71
2017-04-09T01:49:12.164Z,3.65
2017-04-09T01:50:13.413Z,3.71
2017-04-09T01:51:14.697Z,3.67
2017-04-09T01:52:15.935Z,3.72
2017-04-09T01:53:17.182Z,3.7
2017-04-09T01:54:18.403Z,3.67
2017-04-09T01:55:19.642Z,3.57
2017-04-09T01:56:20.886Z,3.61
2017-04-09T01:57:22.151Z,3.57
2017-04-09T01:58:23.532Z,3.62
2017-04-09T01:59:24.767Z,3.53
2017-04-09T02:00:26.080Z,3.64
2017-04-09T02:01:27.309Z,3.67
2017-04-09T02:02:28.536Z,3.65
2017-04-09T02:03:29.901Z,3.62
2017-04-09T02:04:31.286Z,3.6
2017-04-09T02:05:32.415Z,3.52
2017-04-09T02:06:33.650Z,3.52
2017-04-09T02:07:34.876Z,3.49
2017-04-09T02:08:36.114Z,3.57
2017-04-09T02:09:37.365Z,3.4
2017-04-09T02:10:38.582Z,3.46
2017-04-09T02:11:39.829Z,3.44
2017-04-09T02:12:41.063Z,3.44
2017-04-09T02:13:42.301Z,3.44
2017-04-09T02:14:43.654Z,3.42
2017-04-09T02:15:44.919Z,3.3
2017-04-09T02:16:46.234Z,3.33
2017-04-09T02:17:47.467Z,3.28
2017-04-09T02:18:48.700Z,3.27
2017-04-09T02:19:50.083Z,3.33
2017-04-09T02:20:51.347Z,3.27
2017-04-09T02:21:52.577Z,3.25
2017-04-09T02:22:53.798Z,3.28
2017-04-09T02:23:55.056Z,3.25
2017-04-09T02:24:56.268Z,3.31
2017-04-09T02:25:57.508Z,3.28
2017-04-09T02:26:58.732Z,3.24
2017-04-09T02:27:59.968Z,3.25
2017-04-09T02:29:01.208Z,3.27
2017-04-09T02:30:02.457Z,3.23
2017-04-09T02:31:03.695Z,3.2
2017-04-09T02:32:04.939Z,3.2
2017-04-09T02:33:06.186Z,3.2
2017-04-09T02:34:07.415Z,3.23
2017-04-09T02:35:08.670Z,3.21
2017-04-09T02:36:09.946Z,3.16
2017-04-09T02:37:11.359Z,3.21
2017-04-09T02:38:12.563Z,3.23
2017-04-09T02:39:13.805Z,3.27
2017-04-09T02:40:15.036Z,3.16
2017-04-09T02:41:16.367Z,3.16
2017-04-09T02:42:17.642Z,3.16
2017-04-09T02:43:18.857Z,3.27
2017-04-09T02:44:20.110Z,3.2
2017-04-09T02:45:21.331Z,3.21
2017-04-09T02:46:22.602Z,3.18
2017-04-09T02:47:23.833Z,3.2
2017-04-09T02:48:25.062Z,3.15
2017-04-09T02:49:26.323Z,3.13
2017-04-09T02:50:27.518Z,3.13
2017-04-09T02:51:28.755Z,3.09
2017-04-09T02:52:29.990Z,3.15
2017-04-09T02:53:31.215Z,3.1
2017-04-09T02:54:32.468Z,3.1
2017-04-09T02:55:33.721Z,3.09
2017-04-09T02:56:34.937Z,3.12
2017-04-09T02:57:36.183Z,3.07
2017-04-09T02:58:37.415Z,3.1
2017-04-09T02:59:38.659Z,3.16
2017-04-09T03:00:39.900Z,3.1
2017-04-09T03:01:41.150Z,3.07
2017-04-09T03:02:42.389Z,3.07
2017-04-09T03:03:43.604Z,3.03
2017-04-09T03:04:44.843Z,3.09
2017-04-09T03:05:46.175Z,3.05
2017-04-09T03:06:47.413Z,3.09
2017-04-09T03:07:48.673Z,3.03
2017-04-09T03:08:49.935Z,3
2017-04-09T03:09:51.192Z,3.05
2017-04-09T03:10:52.452Z,2.94
2017-04-09T03:11:53.695Z,2.97
2017-04-09T03:12:54.929Z,2.95
2017-04-09T03:13:56.170Z,2.98
2017-04-09T03:14:57.503Z,2.97
2017-04-09T03:15:58.766Z,2.92
2017-04-09T03:17:00.001Z,2.92
2017-04-09T03:18:01.222Z,2.92
2017-04-09T03:19:02.579Z,2.95
2017-04-09T03:20:03.837Z,2.92
2017-04-09T03:21:05.083Z,2.97
2017-04-09T03:22:06.326Z,3.03
2017-04-09T03:23:07.543Z,3
2017-04-09T03:24:08.781Z,2.95
2017-04-09T03:25:10.021Z,2.84
2017-04-09T03:26:11.252Z,2.97
2017-04-09T03:27:12.560Z,2.91
2017-04-09T03:28:13.846Z,2.91
2017-04-09T03:29:15.105Z,2.89
2017-04-09T03:30:16.353Z,2.91
2017-04-09T03:31:17.573Z,2.88
2017-04-09T03:32:18.808Z,2.92
2017-04-09T03:33:20.062Z,2.82
2017-04-09T03:34:21.296Z,2.91
2017-04-09T03:35:22.526Z,2.89
2017-04-09T03:36:23.755Z,2.94
2017-04-09T03:37:24.982Z,2.88
2017-04-09T03:38:26.321Z,2.88
2017-04-09T03:39:27.629Z,2.84
2017-04-09T03:40:28.862Z,2.87
2017-04-09T03:41:30.164Z,2.89
2017-04-09T03:42:31.479Z,2.81
2017-04-09T03:43:32.726Z,2.85
2017-04-09T03:44:33.960Z,2.87
2017-04-09T03:45:35.188Z,2.84
2017-04-09T03:46:36.434Z,2.88
2017-04-09T03:47:37.687Z,2.85
2017-04-09T03:48:38.911Z,2.85
2017-04-09T03:49:40.224Z,2.89
2017-04-09T03:50:41.473Z,2.74
2017-04-09T03:51:42.712Z,2.71
2017-04-09T03:52:43.974Z,2.69
2017-04-09T03:53:45.208Z,2.71
2017-04-09T03:54:46.424Z,2.7
2017-04-09T03:55:47.700Z,2.74
2017-04-09T03:56:48.943Z,2.74
2017-04-09T03:57:50.224Z,2.74
2017-04-09T03:58:51.456Z,2.66
2017-04-09T03:59:52.720Z,2.69
2017-04-09T04:00:53.958Z,2.71
2017-04-09T04:01:55.176Z,2.67
2017-04-09T04:02:56.419Z,2.7
2017-04-09T04:03:57.660Z,2.71
2017-04-09T04:04:58.869Z,2.63
2017-04-09T04:06:00.122Z,2.61
2017-04-09T04:07:01.372Z,2.63
2017-04-09T04:08:02.697Z,2.69
2017-04-09T04:09:03.942Z,2.56
2017-04-09T04:10:05.165Z,2.56
2017-04-09T04:11:06.396Z,2.58
2017-04-09T04:12:07.625Z,2.61
2017-04-09T04:13:08.860Z,2.61
2017-04-09T04:14:10.150Z,2.59
2017-04-09T04:15:11.422Z,2.61
2017-04-09T04:16:12.587Z,2.61
2017-04-09T04:17:13.868Z,2.59
2017-04-09T04:18:15.071Z,2.64
2017-04-09T04:19:16.378Z,2.59
2017-04-09T04:20:17.599Z,2.49
2017-04-09T04:21:18.853Z,2.63
2017-04-09T04:22:20.091Z,2.49
2017-04-09T04:23:21.344Z,2.51
2017-04-09T04:24:22.622Z,2.66
2017-04-09T04:25:23.862Z,2.53
2017-04-09T04:26:25.122Z,2.61
2017-04-09T04:27:26.395Z,2.53
2017-04-09T04:28:27.633Z,2.52
2017-04-09T04:29:28.861Z,2.53
2017-04-09T04:30:30.122Z,2.55
2017-04-09T04:31:31.340Z,2.51
2017-04-09T04:32:32.615Z,2.51
2017-04-09T04:33:34.080Z,2.49
2017-04-09T04:34:35.416Z,2.58
2017-04-09T04:35:36.652Z,2.56
2017-04-09T04:36:37.902Z,2.58
2017-04-09T04:37:39.115Z,2.61
2017-04-09T04:38:40.424Z,2.66
2017-04-09T04:39:41.780Z,2.61
2017-04-09T04:40:43.025Z,2.63
2017-04-09T04:41:44.262Z,2.66
2017-04-09T04:42:45.521Z,2.59
2017-04-09T04:43:46.744Z,2.64
2017-04-09T04:44:48.031Z,2.61
2017-04-09T04:45:49.247Z,2.55
2017-04-09T04:46:50.510Z,2.56
2017-04-09T04:47:51.752Z,2.55
2017-04-09T04:48:52.985Z,2.55
2017-04-09T04:49:54.245Z,2.55
2017-04-09T04:50:55.484Z,2.52
2017-04-09T04:51:56.723Z,2.55
2017-04-09T04:52:57.962Z,2.55
2017-04-09T04:53:59.270Z,2.56
2017-04-09T04:55:00.510Z,2.59
2017-04-09T04:56:01.752Z,2.58
2017-04-09T04:57:02.989Z,2.59
2017-04-09T04:58:04.388Z,2.52
2017-04-09T04:59:05.685Z,2.69
2017-04-09T05:00:06.919Z,2.66
2017-04-09T05:01:08.154Z,2.7
2017-04-09T05:02:09.399Z,2.66
2017-04-09T05:03:10.634Z,2.73
2017-04-09T05:04:11.885Z,2.71
2017-04-09T05:05:13.133Z,2.7
2017-04-09T05:06:14.483Z,2.77
2017-04-09T05:07:15.726Z,2.85
2017-04-09T05:08:16.982Z,2.88
2017-04-09T05:09:18.291Z,2.89
2017-04-09T05:10:19.514Z,2.89
2017-04-09T05:11:20.759Z,2.89
2017-04-09T05:12:21.995Z,2.88
2017-04-09T05:13:23.220Z,2.97
2017-04-09T05:14:24.456Z,3.02
2017-04-09T05:15:25.700Z,3.05
2017-04-09T05:16:26.955Z,3.13
2017-04-09T05:17:28.376Z,3.15
2017-04-09T05:18:29.616Z,3.31
2017-04-09T05:19:30.845Z,3.25
2017-04-09T05:20:32.080Z,3.3
2017-04-09T05:21:33.314Z,3.36
2017-04-09T05:22:34.584Z,3.44
2017-04-09T05:23:35.927Z,3.49
2017-04-09T05:24:37.051Z,3.53
2017-04-09T05:25:38.287Z,3.64
2017-04-09T05:26:39.542Z,3.67
2017-04-09T05:27:40.757Z,3.7
2017-04-09T05:28:41.996Z,3.83
2017-04-09T05:29:43.291Z,3.79
2017-04-09T05:30:44.522Z,3.97
2017-04-09T05:31:45.761Z,4.04
2017-04-09T05:32:46.983Z,4.06
2017-04-09T05:33:48.226Z,4.12
2017-04-09T05:34:49.440Z,4.28
2017-04-09T05:35:50.689Z,4.51
2017-04-09T05:36:52.045Z,4.89
2017-04-09T05:37:53.291Z,5.16
2017-04-09T05:38:54.528Z,5.35
2017-04-09T05:39:55.979Z,5.6
2017-04-09T05:40:57.216Z,5.85
2017-04-09T05:41:58.467Z,6.28
2017-04-09T05:42:59.787Z,6.65
2017-04-09T05:44:01.007Z,6.98
2017-04-09T05:45:02.244Z,7.24
2017-04-09T05:46:03.481Z,7.56
2017-04-09T05:47:04.724Z,7.89
2017-04-09T05:48:05.970Z,8.17
2017-04-09T05:49:07.214Z,8.53
2017-04-09T05:50:08.458Z,8.76
2017-04-09T05:51:09.697Z,9.1
2017-04-09T05:52:10.931Z,9.49
2017-04-09T05:53:12.180Z,9.71
2017-04-09T05:54:13.425Z,10
2017-04-09T05:55:14.719Z,10.34
2017-04-09T05:56:16.004Z,10.65
2017-04-09T05:57:17.265Z,11.07
2017-04-09T05:58:18.525Z,11.39
2017-04-09T05:59:19.740Z,11.56
2017-04-09T06:00:20.981Z,11.74
2017-04-09T06:01:22.225Z,11.94
2017-04-09T06:02:23.488Z,12.13
2017-04-09T06:03:24.751Z,12.51
2017-04-09T06:04:25.988Z,12.74
2017-04-09T06:05:27.239Z,13.02
2017-04-09T06:06:28.699Z,13.37
2017-04-09T06:07:30.089Z,13.55
2017-04-09T06:08:31.335Z,13.88
2017-04-09T06:09:32.625Z,14.12
2017-04-09T06:10:33.918Z,14.46
2017-04-09T06:11:35.155Z,14.83
2017-04-09T06:12:36.440Z,15.09
2017-04-09T06:13:37.661Z,15.13
2017-04-09T06:14:38.900Z,15.23
2017-04-09T06:15:40.188Z,15.39
2017-04-09T06:16:41.448Z,15.41
2017-04-09T06:17:42.675Z,15.66
2017-04-09T06:18:43.929Z,15.99
2017-04-09T06:19:45.210Z,16.33
2017-04-09T06:20:46.455Z,16.74
2017-04-09T06:21:47.677Z,17
2017-04-09T06:22:48.928Z,17.3
2017-04-09T06:23:50.174Z,17.74
2017-04-09T06:24:51.410Z,18.1
2017-04-09T06:25:52.653Z,18.54
2017-04-09T06:26:54.065Z,18.7
2017-04-09T06:27:55.231Z,18.91
2017-04-09T06:28:56.521Z,19.11
2017-04-09T06:29:57.754Z,19.23
2017-04-09T06:30:59.001Z,19.5
2017-04-09T06:32:00.285Z,19.43
2017-04-09T06:33:01.840Z,19.57
2017-04-09T06:34:03.008Z,19.79
2017-04-09T06:35:04.275Z,20.05
2017-04-09T06:36:05.494Z,20.33
2017-04-09T06:37:06.789Z,20.65
2017-04-09T06:38:08.060Z,20.69
2017-04-09T06:39:09.291Z,20.91
2017-04-09T06:40:10.648Z,21.06
2017-04-09T06:41:11.886Z,21.02
2017-04-09T06:42:13.139Z,21.19
2017-04-09T06:43:14.416Z,21.34
2017-04-09T06:44:15.801Z,21.41
2017-04-09T06:45:17.170Z,21.74
2017-04-09T06:46:18.409Z,21.94
2017-04-09T06:47:19.669Z,22.1
2017-04-09T06:48:20.932Z,22.19
2017-04-09T06:49:22.155Z,22.44
2017-04-09T06:50:23.446Z,22.6
2017-04-09T06:51:24.792Z,22.69
2017-04-09T06:52:26.042Z,23.01
2017-04-09T06:53:27.291Z,22.89
2017-04-09T06:54:28.602Z,23.01
2017-04-09T06:55:29.877Z,23.02
2017-04-09T06:56:31.162Z,22.83
2017-04-09T06:57:32.405Z,22.68
2017-04-09T06:58:33.636Z,22.8
2017-04-09T06:59:34.879Z,22.83
2017-04-09T07:00:36.135Z,23.05
2017-04-09T07:01:37.383Z,23.15
2017-04-09T07:02:38.664Z,23.35
2017-04-09T07:03:39.933Z,23.57
2017-04-09T07:04:41.230Z,23.76
2017-04-09T07:05:42.482Z,23.94
2017-04-09T07:06:43.743Z,24.04
2017-04-09T07:07:45.063Z,24.14
2017-04-09T07:08:46.320Z,24.22
2017-04-09T07:09:47.654Z,24.53
2017-04-09T07:10:48.860Z,24.39
2017-04-09T07:11:50.110Z,23.58
2017-04-09T07:12:51.358Z,23.23
2017-04-09T07:13:52.591Z,23.5
2017-04-09T07:14:53.948Z,23.76
2017-04-09T07:15:55.180Z,24.17
2017-04-09T07:16:56.479Z,24.41
2017-04-09T07:17:57.698Z,24.37
2017-04-09T07:18:58.950Z,24.45
2017-04-09T07:20:00.278Z,24.82
2017-04-09T07:21:01.544Z,24.69
2017-04-09T07:22:02.767Z,24.92
2017-04-09T07:23:04.091Z,25.1
2017-04-09T07:24:05.350Z,25.22
2017-04-09T07:25:06.603Z,25.43
2017-04-09T07:26:07.864Z,25.35
2017-04-09T07:27:09.128Z,25.13
2017-04-09T07:28:10.362Z,25.01
2017-04-09T07:29:11.647Z,24.92
2017-04-09T07:30:12.908Z,24.56
2017-04-09T07:31:14.238Z,25.02
2017-04-09T07:32:15.475Z,25.19
2017-04-09T07:33:16.767Z,25.32
2017-04-09T07:34:18.048Z,25.39
2017-04-09T07:35:19.295Z,25.52
2017-04-09T07:36:20.619Z,25.77
2017-04-09T07:37:21.831Z,25.87
2017-04-09T07:38:23.075Z,26.08
2017-04-09T07:39:24.374Z,25.93
2017-04-09T07:40:25.661Z,25.72
2017-04-09T07:41:26.920Z,25.75
2017-04-09T07:42:28.196Z,25.99
2017-04-09T07:43:29.504Z,26.02
2017-04-09T07:44:30.781Z,25.68
2017-04-09T07:45:32.145Z,25.84
2017-04-09T07:46:33.385Z,26.05
2017-04-09T07:47:34.639Z,26.02
2017-04-09T07:48:35.888Z,26.15
2017-04-09T07:49:37.144Z,25.65
2017-04-09T07:50:38.432Z,25.67
2017-04-09T07:51:39.680Z,25.53
2017-04-09T07:52:40.935Z,25.89
2017-04-09T07:53:42.195Z,25.91
2017-04-09T07:54:43.442Z,25.9
2017-04-09T07:55:44.728Z,25.93
2017-04-09T07:56:45.999Z,26.04
2017-04-09T07:57:47.290Z,26.06
2017-04-09T07:58:48.561Z,26.06
2017-04-09T07:59:49.834Z,26.02
2017-04-09T08:00:51.065Z,26.02
2017-04-09T08:01:52.422Z,25.49
2017-04-09T08:02:53.679Z,25.17
2017-04-09T08:03:54.964Z,25.57
2017-04-09T08:04:56.203Z,25.57
2017-04-09T08:05:57.514Z,26.08
2017-04-09T08:06:58.759Z,26.15
2017-04-09T08:08:00.009Z,26.05
2017-04-09T08:09:01.249Z,26.24
2017-04-09T08:10:02.528Z,26.79
2017-04-09T08:11:03.919Z,27.23
2017-04-09T08:12:05.172Z,27.57
2017-04-09T08:13:06.416Z,27.8
2017-04-09T08:14:07.681Z,27.99
2017-04-09T08:15:08.923Z,28.1
2017-04-09T08:16:10.249Z,28.07
2017-04-09T08:17:11.453Z,27.43
2017-04-09T08:18:12.713Z,27.11
2017-04-09T08:19:13.993Z,27.19
2017-04-09T08:20:15.260Z,27.26
2017-04-09T08:21:16.498Z,27.41
2017-04-09T08:22:17.784Z,27.77
2017-04-09T08:23:19.032Z,27.84
2017-04-09T08:24:20.292Z,28.65
2017-04-09T08:25:21.536Z,29.31
2017-04-09T08:26:22.825Z,29.52
2017-04-09T08:27:24.153Z,29.97
2017-04-09T08:28:25.405Z,30.16
2017-04-09T08:29:26.660Z,30.53
2017-04-09T08:30:27.923Z,30.83
2017-04-09T08:31:29.178Z,31.06
2017-04-09T08:32:30.437Z,31.39
2017-04-09T08:33:31.698Z,31.11
2017-04-09T08:34:32.989Z,31.21
2017-04-09T08:35:34.265Z,31.35
2017-04-09T08:36:35.529Z,31.4
2017-04-09T08:37:36.766Z,31.53
2017-04-09T08:38:38.055Z,31.68
2017-04-09T08:39:39.286Z,31.91
2017-04-09T08:40:40.540Z,32
2017-04-09T08:41:41.871Z,32.05
2017-04-09T08:42:43.092Z,32.07
2017-04-09T08:43:44.505Z,32.03
2017-04-09T08:44:45.786Z,31.68
2017-04-09T08:45:47.168Z,31.33
2017-04-09T08:46:48.576Z,31.12
2017-04-09T08:47:49.830Z,31.17
2017-04-09T08:48:51.079Z,31.28
2017-04-09T08:49:52.355Z,31.4
2017-04-09T08:50:53.617Z,31.7
2017-04-09T08:51:54.947Z,31.65
2017-04-09T08:52:56.293Z,31.61
2017-04-09T08:53:57.570Z,31.43
2017-04-09T08:54:58.822Z,30.94
2017-04-09T08:56:00.094Z,30.52
2017-04-09T08:57:01.364Z,29.97
2017-04-09T08:58:02.779Z,29.82
2017-04-09T08:59:04.064Z,29.74
2017-04-09T09:00:05.282Z,30.12
2017-04-09T09:01:06.587Z,30.3
2017-04-09T09:02:07.843Z,29.62
2017-04-09T09:03:09.105Z,29.59
2017-04-09T09:04:10.463Z,29.13
2017-04-09T09:05:11.715Z,29.2
2017-04-09T09:06:12.970Z,29.22
2017-04-09T09:07:14.227Z,29.59
2017-04-09T09:08:15.499Z,30.02
2017-04-09T09:09:16.779Z,30.07
2017-04-09T09:10:18.067Z,30.52
2017-04-09T09:11:19.319Z,30.53
2017-04-09T09:12:20.569Z,30.34
2017-04-09T09:13:21.840Z,30.49
2017-04-09T09:14:23.093Z,30.9
2017-04-09T09:15:24.366Z,31.24
2017-04-09T09:16:25.630Z,31.43
2017-04-09T09:17:26.877Z,31.77
2017-04-09T09:18:28.154Z,32.14
2017-04-09T09:19:29.422Z,32.54
2017-04-09T09:20:30.703Z,32.57
2017-04-09T09:21:32.007Z,32.18
2017-04-09T09:22:33.285Z,32.2
2017-04-09T09:23:34.735Z,32.48
2017-04-09T09:24:35.984Z,32.59
2017-04-09T09:25:37.224Z,32.67
2017-04-09T09:26:38.545Z,33.04
2017-04-09T09:27:39.886Z,32.95
2017-04-09T09:28:41.159Z,32.95
2017-04-09T09:29:42.387Z,33.1
2017-04-09T09:30:43.657Z,33.26
2017-04-09T09:31:44.924Z,33.1
2017-04-09T09:32:46.417Z,33.41
2017-04-09T09:33:47.560Z,34.02
2017-04-09T09:34:48.825Z,34.63
2017-04-09T09:35:50.106Z,34.84
2017-04-09T09:36:51.347Z,35.13
2017-04-09T09:37:52.724Z,35.32
2017-04-09T09:38:53.984Z,35.45
2017-04-09T09:39:55.245Z,35.21
2017-04-09T09:40:56.524Z,34.6
2017-04-09T09:41:57.759Z,34.09
2017-04-09T09:42:59.028Z,34.29
2017-04-09T09:44:00.285Z,34.26
2017-04-09T09:45:01.539Z,34.53
2017-04-09T09:46:03.037Z,34.69
2017-04-09T09:47:04.296Z,34.95
2017-04-09T09:48:05.555Z,35.17
2017-04-09T09:49:06.850Z,35.58
2017-04-09T09:50:08.159Z,35.86
2017-04-09T09:51:09.529Z,35.63
2017-04-09T09:52:10.817Z,35.7
2017-04-09T09:53:12.063Z,35.76
2017-04-09T09:54:13.318Z,36.03
2017-04-09T09:55:14.596Z,36.24
2017-04-09T09:56:15.952Z,36.67
2017-04-09T09:57:17.205Z,37.16
2017-04-09T09:58:18.513Z,36.86
2017-04-09T09:59:19.776Z,36.75
2017-04-09T10:00:21.023Z,36.79
2017-04-09T10:01:22.341Z,36.65
2017-04-09T10:02:23.639Z,36.31
2017-04-09T10:03:25.019Z,36.2
2017-04-09T10:04:26.297Z,36.36
2017-04-09T10:05:27.516Z,35.58
2017-04-09T10:06:28.791Z,35.93
2017-04-09T10:07:30.134Z,36.12
2017-04-09T10:08:31.343Z,36.38
2017-04-09T10:09:32.602Z,36.76
2017-04-09T10:10:33.868Z,37.1
2017-04-09T10:11:35.146Z,37.07
2017-04-09T10:12:36.422Z,37.33
2017-04-09T10:13:37.690Z,37.55
2017-04-09T10:14:38.974Z,37.73
2017-04-09T10:15:40.212Z,37.99
2017-04-09T10:16:41.489Z,38.23
2017-04-09T10:17:42.767Z,38.44
2017-04-09T10:18:44.001Z,38.24
2017-04-09T10:19:45.260Z,38.33
2017-04-09T10:20:46.569Z,38.32
2017-04-09T10:21:47.952Z,38.57
2017-04-09T10:22:49.251Z,38.64
2017-04-09T10:23:50.524Z,38.63
2017-04-09T10:24:51.785Z,38.66
2017-04-09T10:25:53.095Z,38.24
2017-04-09T10:26:54.361Z,38.22
2017-04-09T10:27:55.641Z,38.42
2017-04-09T10:28:56.880Z,38.11
2017-04-09T10:29:58.153Z,37.67
2017-04-09T10:30:59.421Z,37.66
2017-04-09T10:32:00.695Z,37.59
2017-04-09T10:33:02.091Z,37.8
2017-04-09T10:34:03.347Z,37.85
2017-04-09T10:35:04.607Z,38.01
2017-04-09T10:36:05.891Z,37.61
2017-04-09T10:37:07.138Z,36.73
2017-04-09T10:38:08.523Z,35.82
2017-04-09T10:39:09.788Z,35.42
2017-04-09T10:40:11.035Z,34.73
2017-04-09T10:41:12.294Z,34.19
2017-04-09T10:42:13.611Z,33.6
2017-04-09T10:43:14.954Z,33.34
2017-04-09T10:44:16.328Z,33.19
2017-04-09T10:45:17.599Z,33.1
2017-04-09T10:46:18.835Z,32.47
2017-04-09T10:47:20.090Z,32.3
2017-04-09T10:48:21.358Z,31.82
2017-04-09T10:49:22.682Z,31.28
2017-04-09T10:50:23.960Z,30.94
2017-04-09T10:51:25.224Z,30.07
2017-04-09T10:52:26.483Z,29.55
2017-04-09T10:53:27.744Z,29.26
2017-04-09T10:54:28.992Z,28.9
2017-04-09T10:55:30.277Z,28.44
2017-04-09T10:56:31.545Z,27.76
2017-04-09T10:57:32.854Z,27.43
2017-04-09T10:58:34.122Z,27.23
2017-04-09T10:59:35.346Z,27.09
2017-04-09T11:00:36.618Z,26.77
2017-04-09T11:01:37.942Z,26.52
2017-04-09T11:02:39.186Z,26.25
2017-04-09T11:03:40.442Z,25.98
2017-04-09T11:04:41.697Z,25.57
2017-04-09T11:05:42.950Z,25.31
2017-04-09T11:06:44.215Z,24.83
2017-04-09T11:07:45.471Z,24.44
2017-04-09T11:08:46.765Z,24.24
2017-04-09T11:09:48.022Z,24
2017-04-09T11:10:49.270Z,23.92
2017-04-09T11:11:50.545Z,23.76
2017-04-09T11:12:51.801Z,23.75
2017-04-09T11:13:53.089Z,23.67
2017-04-09T11:14:54.343Z,23.5
2017-04-09T11:15:55.744Z,23.39
2017-04-09T11:16:57.014Z,23.45
2017-04-09T11:17:58.235Z,23.27
2017-04-09T11:18:59.482Z,23.09
2017-04-09T11:20:00.729Z,23.15
2017-04-09T11:21:02.032Z,23.08
2017-04-09T11:22:03.285Z,23.02
2017-04-09T11:23:04.646Z,22.93
2017-04-09T11:24:05.894Z,23.01
2017-04-09T11:25:07.151Z,22.9
2017-04-09T11:26:08.419Z,22.82
2017-04-09T11:27:09.665Z,22.74
2017-04-09T11:28:10.921Z,22.56
2017-04-09T11:29:12.161Z,22.68
2017-04-09T11:30:13.403Z,22.47
2017-04-09T11:31:14.715Z,22.28
2017-04-09T11:32:15.985Z,22.22
2017-04-09T11:33:17.303Z,22.23
2017-04-09T11:34:18.559Z,22.01
2017-04-09T11:35:19.840Z,21.82
2017-04-09T11:36:21.059Z,21.78
2017-04-09T11:37:22.388Z,21.53
2017-04-09T11:38:23.633Z,21.51
2017-04-09T11:39:24.888Z,21.51
2017-04-09T11:40:26.122Z,21.5
2017-04-09T11:41:27.370Z,21.44
2017-04-09T11:42:28.654Z,21.38
2017-04-09T11:43:29.902Z,21.44
2017-04-09T11:44:31.158Z,21.34
2017-04-09T11:45:32.419Z,21.38
2017-04-09T11:46:33.728Z,21.39
2017-04-09T11:47:34.923Z,21.42
2017-04-09T11:48:36.175Z,21.34
2017-04-09T11:49:37.440Z,21.19
2017-04-09T11:50:38.711Z,21.2
2017-04-09T11:51:39.971Z,21.29
2017-04-09T11:52:41.203Z,21.38
2017-04-09T11:53:42.450Z,21.44
2017-04-09T11:54:43.692Z,21.21
2017-04-09T11:55:44.947Z,21.13
2017-04-09T11:56:46.307Z,21.01
2017-04-09T11:57:47.572Z,20.99
2017-04-09T11:58:49.070Z,21.02
2017-04-09T11:59:50.313Z,21.05
2017-04-09T12:00:51.578Z,21.04
2017-04-09T12:01:52.891Z,21.14
2017-04-09T12:02:54.203Z,21.04
2017-04-09T12:03:55.445Z,21.14
2017-04-09T12:04:56.709Z,21.16
2017-04-09T12:05:57.982Z,21.17
2017-04-09T12:06:59.220Z,21.17
2017-04-09T12:08:00.471Z,21.27
2017-04-09T12:09:01.937Z,21.14
2017-04-09T12:10:03.254Z,21.16
2017-04-09T12:11:04.644Z,21.01
2017-04-09T12:12:05.883Z,20.93
2017-04-09T12:13:07.154Z,20.89
2017-04-09T12:14:08.447Z,20.9
2017-04-09T12:15:09.671Z,20.86
2017-04-09T12:16:10.921Z,20.84
2017-04-09T12:17:12.174Z,20.99
2017-04-09T12:18:13.407Z,20.99
2017-04-09T12:19:14.665Z,20.89
2017-04-09T12:20:15.964Z,20.76
2017-04-09T12:21:17.310Z,20.72
2017-04-09T12:22:18.569Z,20.76
2017-04-09T12:23:19.799Z,20.74
2017-04-09T12:24:21.072Z,20.83
2017-04-09T12:25:22.312Z,20.89
2017-04-09T12:26:23.574Z,20.89
2017-04-09T12:27:24.896Z,20.95
2017-04-09T12:28:26.140Z,20.89
2017-04-09T12:29:27.417Z,20.8
2017-04-09T12:30:28.671Z,20.81
2017-04-09T12:31:29.935Z,20.72
2017-04-09T12:32:31.190Z,20.74
2017-04-09T12:33:32.443Z,20.74
2017-04-09T12:34:33.706Z,20.72
2017-04-09T12:35:34.955Z,20.76
2017-04-09T12:36:36.202Z,20.84
2017-04-09T12:37:37.455Z,20.93
2017-04-09T12:38:38.948Z,20.96
2017-04-09T12:39:40.439Z,21.05
2017-04-09T12:40:41.691Z,21.01
2017-04-09T12:41:42.921Z,20.99
2017-04-09T12:42:44.169Z,20.91
2017-04-09T12:43:45.414Z,20.8
2017-04-09T12:44:46.666Z,20.9
2017-04-09T12:45:47.916Z,20.83
2017-04-09T12:46:49.186Z,20.93
2017-04-09T12:47:50.441Z,20.84
2017-04-09T12:48:51.692Z,20.9
2017-04-09T12:49:52.966Z,20.87
2017-04-09T12:50:54.198Z,20.84
2017-04-09T12:51:55.503Z,20.89
2017-04-09T12:52:56.752Z,20.99
2017-04-09T12:53:58.020Z,20.98
2017-04-09T12:54:59.339Z,21.09
2017-04-09T12:56:00.687Z,21.06
2017-04-09T12:57:01.935Z,21.06
2017-04-09T12:58:03.206Z,21.06
2017-04-09T12:59:04.668Z,21.08
2017-04-09T13:00:05.923Z,20.93
2017-04-09T13:01:07.165Z,21.01
2017-04-09T13:02:08.431Z,20.99
2017-04-09T13:03:09.682Z,20.96
2017-04-09T13:04:10.942Z,20.93
2017-04-09T13:05:12.197Z,20.93
2017-04-09T13:06:13.448Z,21.01
2017-04-09T13:07:14.801Z,21.05
2017-04-09T13:08:16.061Z,21.01
2017-04-09T13:09:17.402Z,21.08
2017-04-09T13:10:18.654Z,20.99
2017-04-09T13:11:19.892Z,21.05
2017-04-09T13:12:21.134Z,21.05
2017-04-09T13:13:22.444Z,21.02
2017-04-09T13:14:23.698Z,21.06
2017-04-09T13:15:24.943Z,21.06
2017-04-09T13:16:26.194Z,21.11
2017-04-09T13:17:27.445Z,21.14
2017-04-09T13:18:28.702Z,21.11
2017-04-09T13:19:29.967Z,21.21
2017-04-09T13:20:31.542Z,21.16
2017-04-09T13:21:32.794Z,21.19
2017-04-09T13:22:34.069Z,21.21
2017-04-09T13:23:35.293Z,21.14